createdAt,value
2019-05-20T00:00:41.768Z,9.63
2019-05-20T00:03:11.479Z,9.70
2019-05-20T00:05:41.471Z,8.95
2019-05-20T00:08:12.376Z,9.43
2019-05-20T00:10:42.149Z,9.68
2019-05-20T00:13:11.828Z,10.65
2019-05-20T00:15:41.564Z,9.53
2019-05-20T00:18:11.275Z,10.05
2019-05-20T00:20:40.987Z,10.40
2019-05-20T00:23:10.697Z,9.98
2019-05-20T00:25:41.298Z,9.63
2019-05-20T00:28:11.040Z,10.10
2019-05-20T00:30:40.747Z,9.70
2019-05-20T00:33:10.456Z,9.65
2019-05-20T00:35:40.167Z,8.38
2019-05-20T00:38:09.851Z,8.28
2019-05-20T00:40:39.592Z,8.33
2019-05-20T00:43:09.297Z,8.43
2019-05-20T00:45:38.979Z,7.62
2019-05-20T00:48:08.695Z,7.28
2019-05-20T00:50:38.427Z,7.50
2019-05-20T00:53:08.138Z,8.25
2019-05-20T00:55:37.827Z,8.55
2019-05-20T00:58:07.530Z,8.43
2019-05-20T01:00:37.269Z,7.80
2019-05-20T01:03:06.981Z,7.78
2019-05-20T01:05:36.690Z,7.33
2019-05-20T01:08:06.298Z,6.72
2019-05-20T01:10:35.978Z,6.28
2019-05-20T01:13:05.614Z,6.30
2019-05-20T01:15:35.334Z,6.72
2019-05-20T01:18:05.010Z,6.67
2019-05-20T01:20:34.747Z,6.70
2019-05-20T01:23:04.339Z,6.05
2019-05-20T01:25:35.103Z,5.72
2019-05-20T01:28:05.749Z,5.62
2019-05-20T01:30:35.428Z,5.60
2019-05-20T01:33:13.877Z,6.17
2019-05-20T01:35:36.336Z,6.10
2019-05-20T01:38:06.067Z,6.05
2019-05-20T01:40:35.703Z,6.33
2019-05-20T01:43:06.310Z,6.20
2019-05-20T01:45:36.044Z,6.20
2019-05-20T01:48:05.840Z,5.97
2019-05-20T01:50:35.571Z,5.83
2019-05-20T01:53:05.277Z,6.33
2019-05-20T01:55:34.886Z,6.20
2019-05-20T01:58:04.596Z,6.80
2019-05-20T02:00:34.307Z,6.30
2019-05-20T02:03:03.988Z,6.53
2019-05-20T02:05:33.626Z,6.17
2019-05-20T02:08:03.342Z,6.60
2019-05-20T02:10:33.044Z,6.78
2019-05-20T02:13:02.765Z,7.00
2019-05-20T02:15:45.674Z,6.90
2019-05-20T02:18:15.384Z,7.28
2019-05-20T02:20:45.094Z,6.67
2019-05-20T02:23:15.117Z,7.05
2019-05-20T02:25:48.235Z,6.92
2019-05-20T02:28:17.888Z,6.60
2019-05-20T02:30:48.652Z,7.15
2019-05-20T02:33:18.357Z,7.75
2019-05-20T02:35:49.023Z,7.35
2019-05-20T02:38:18.700Z,7.58
2019-05-20T02:40:48.408Z,7.65
2019-05-20T02:43:18.117Z,7.85
2019-05-20T02:45:47.799Z,7.92
2019-05-20T02:48:17.512Z,8.73
2019-05-20T02:50:47.254Z,9.15
2019-05-20T02:53:16.958Z,8.60
2019-05-20T02:55:46.676Z,8.88
2019-05-20T02:58:16.380Z,8.90
2019-05-20T03:00:46.093Z,9.45
2019-05-20T03:03:15.773Z,10.25
2019-05-20T03:05:45.518Z,9.70
2019-05-20T03:08:15.218Z,10.88
2019-05-20T03:10:45.934Z,11.08
2019-05-20T03:13:15.664Z,10.13
2019-05-20T03:15:46.401Z,11.83
2019-05-20T03:18:16.110Z,11.68
2019-05-20T03:20:45.818Z,12.37
2019-05-20T03:23:16.585Z,12.70
2019-05-20T03:25:46.263Z,12.73
2019-05-20T03:28:15.949Z,14.38
2019-05-20T03:30:45.683Z,14.23
2019-05-20T03:33:15.403Z,13.65
2019-05-20T03:35:45.108Z,15.00
2019-05-20T03:38:16.533Z,14.20
2019-05-20T03:40:46.161Z,14.07
2019-05-20T03:43:15.880Z,15.90
2019-05-20T03:45:45.558Z,16.37
2019-05-20T03:48:15.298Z,16.10
2019-05-20T03:50:45.003Z,17.02
2019-05-20T03:53:14.585Z,16.70
2019-05-20T03:55:44.536Z,16.42
2019-05-20T03:58:14.279Z,17.23
2019-05-20T04:00:47.656Z,17.90
2019-05-20T04:03:17.347Z,17.35
2019-05-20T04:05:47.066Z,15.95
2019-05-20T04:08:16.776Z,15.98
2019-05-20T04:10:46.473Z,18.57
2019-05-20T04:13:17.496Z,19.27
2019-05-20T04:15:47.200Z,18.07
2019-05-20T04:18:16.917Z,18.20
2019-05-20T04:20:46.628Z,19.17
2019-05-20T04:23:16.357Z,20.50
2019-05-20T04:25:46.040Z,21.60
2019-05-20T04:28:15.777Z,23.18
2019-05-20T04:30:45.487Z,24.50
2019-05-20T04:33:15.196Z,25.50
2019-05-20T04:35:49.264Z,26.55
2019-05-20T04:38:16.227Z,27.60
2019-05-20T04:40:45.940Z,28.52
2019-05-20T04:43:15.675Z,27.32
2019-05-20T04:45:47.078Z,29.67
2019-05-20T04:48:16.840Z,29.00
2019-05-20T04:50:46.477Z,31.07
2019-05-20T04:53:17.178Z,26.55
2019-05-20T04:55:47.917Z,28.35
2019-05-20T04:58:17.603Z,27.80
2019-05-20T05:00:57.555Z,23.95
2019-05-20T05:03:27.385Z,27.80
2019-05-20T05:05:57.104Z,22.37
2019-05-20T05:08:26.984Z,23.12
2019-05-20T05:10:56.821Z,25.72
2019-05-20T05:13:26.455Z,23.73
2019-05-20T05:15:56.194Z,22.95
2019-05-20T05:18:25.802Z,22.48
2019-05-20T05:20:57.287Z,22.02
2019-05-20T05:23:26.935Z,20.47
2019-05-20T05:25:56.671Z,20.48
2019-05-20T05:28:26.387Z,20.57
2019-05-20T05:30:56.094Z,22.07
2019-05-20T05:33:25.803Z,20.72
2019-05-20T05:35:56.759Z,21.02
2019-05-20T05:38:26.553Z,22.35
2019-05-20T05:40:56.263Z,21.23
2019-05-20T05:43:25.947Z,22.58
2019-05-20T05:45:55.685Z,23.90
2019-05-20T05:48:27.114Z,21.68
2019-05-20T05:50:56.743Z,23.03
2019-05-20T05:53:26.428Z,24.70
2019-05-20T05:55:56.163Z,24.65
2019-05-20T05:58:25.880Z,26.05
2019-05-20T06:00:55.556Z,26.52
2019-05-20T06:03:25.285Z,28.57
2019-05-20T06:06:10.615Z,28.83
2019-05-20T06:08:26.353Z,22.53
2019-05-20T06:10:56.039Z,28.12
2019-05-20T06:13:25.774Z,27.13
2019-05-20T06:15:55.485Z,26.07
2019-05-20T06:18:25.192Z,25.73
2019-05-20T06:20:54.902Z,25.75
2019-05-20T06:23:24.509Z,29.82
2019-05-20T06:25:54.221Z,31.52
2019-05-20T06:28:25.791Z,28.98
2019-05-20T06:30:55.281Z,34.30
2019-05-20T06:33:25.949Z,30.88
2019-05-20T06:35:55.722Z,30.85
2019-05-20T06:38:35.776Z,29.07
2019-05-20T06:41:08.335Z,31.60
2019-05-20T06:43:37.968Z,32.83
2019-05-20T06:46:07.672Z,35.60
2019-05-20T06:48:37.382Z,36.63
2019-05-20T06:51:07.092Z,32.83
2019-05-20T06:53:36.765Z,32.90
2019-05-20T06:56:06.511Z,33.92
2019-05-20T06:58:36.222Z,31.70
2019-05-20T07:01:06.958Z,32.00
2019-05-20T07:03:36.563Z,34.67
2019-05-20T07:06:06.272Z,33.98
2019-05-20T07:08:37.709Z,32.35
2019-05-20T07:11:07.332Z,36.83
2019-05-20T07:13:37.119Z,37.13
2019-05-20T07:16:06.861Z,39.20
2019-05-20T07:18:37.541Z,37.73
2019-05-20T07:21:07.202Z,38.83
2019-05-20T07:23:36.907Z,38.78
2019-05-20T07:26:06.593Z,40.20
2019-05-20T07:28:36.346Z,39.48
2019-05-20T07:31:06.022Z,35.48
2019-05-20T07:33:35.747Z,36.93
2019-05-20T07:36:05.465Z,36.08
2019-05-20T07:38:35.168Z,32.08
2019-05-20T07:41:04.880Z,31.85
2019-05-20T07:43:34.564Z,30.12
2019-05-20T07:46:05.424Z,32.00
2019-05-20T07:48:35.131Z,29.57
2019-05-20T07:51:04.962Z,31.65
2019-05-20T07:53:34.672Z,31.02
2019-05-20T07:56:09.652Z,30.55
2019-05-20T07:58:39.811Z,27.00
2019-05-20T08:01:09.496Z,29.42
2019-05-20T08:03:39.232Z,28.98
2019-05-20T08:06:08.946Z,29.98
2019-05-20T08:08:38.656Z,29.48
2019-05-20T08:11:08.362Z,30.30
2019-05-20T08:13:38.083Z,29.23
2019-05-20T08:16:07.782Z,30.50
2019-05-20T08:18:38.504Z,28.80
2019-05-20T08:21:08.230Z,29.07
2019-05-20T08:23:37.938Z,25.12
2019-05-20T08:26:07.648Z,27.58
2019-05-20T08:28:37.358Z,26.12
2019-05-20T08:31:07.067Z,28.15
2019-05-20T08:33:36.819Z,27.17
2019-05-20T08:36:06.590Z,26.75
2019-05-20T08:38:36.303Z,27.15
2019-05-20T08:41:06.013Z,29.80
2019-05-20T08:43:36.635Z,27.93
2019-05-20T08:46:06.352Z,28.57
2019-05-20T08:48:36.061Z,27.98
2019-05-20T08:51:06.769Z,26.20
2019-05-20T08:53:36.507Z,30.97
2019-05-20T08:56:07.960Z,29.63
2019-05-20T08:58:37.668Z,28.50
2019-05-20T09:01:08.396Z,29.57
2019-05-20T09:03:38.626Z,29.53
2019-05-20T09:06:08.316Z,29.35
2019-05-20T09:08:39.012Z,28.32
2019-05-20T09:11:09.776Z,29.37
2019-05-20T09:13:39.514Z,27.48
2019-05-20T09:16:09.244Z,27.98
2019-05-20T09:18:39.896Z,27.10
2019-05-20T09:21:10.092Z,22.65
2019-05-20T09:23:40.196Z,24.92
2019-05-20T09:26:09.879Z,24.47
2019-05-20T09:28:40.512Z,24.85
2019-05-20T09:31:12.218Z,26.82
2019-05-20T09:33:41.982Z,25.35
2019-05-20T09:36:11.718Z,25.00
2019-05-20T09:38:41.439Z,24.50
2019-05-20T09:41:11.115Z,24.98
2019-05-20T09:43:41.314Z,24.37
2019-05-20T09:46:11.175Z,23.52
2019-05-20T09:48:41.495Z,24.07
2019-05-20T09:51:11.218Z,24.80
2019-05-20T09:53:40.896Z,23.85
2019-05-20T09:56:10.547Z,24.67
2019-05-20T09:58:40.241Z,23.87
2019-05-20T10:01:21.998Z,21.40
2019-05-20T10:03:51.716Z,23.65
2019-05-20T10:06:22.267Z,22.50
2019-05-20T10:08:51.995Z,22.45
2019-05-20T10:11:21.688Z,20.70
2019-05-20T10:13:51.396Z,22.00
2019-05-20T10:16:20.980Z,20.30
2019-05-20T10:18:50.713Z,18.70
2019-05-20T10:21:20.423Z,20.02
2019-05-20T10:23:50.136Z,19.17
2019-05-20T10:26:20.782Z,19.45
2019-05-20T10:28:50.374Z,19.40
2019-05-20T10:31:20.086Z,18.80
2019-05-20T10:33:49.801Z,18.82
2019-05-20T10:36:20.600Z,19.32
2019-05-20T10:38:58.524Z,19.95
2019-05-20T10:41:21.491Z,18.35
2019-05-20T10:43:51.169Z,19.82
2019-05-20T10:46:22.628Z,19.57
2019-05-20T10:48:52.257Z,19.87
2019-05-20T10:51:21.939Z,19.15
2019-05-20T10:53:51.653Z,19.35
2019-05-20T10:56:21.292Z,19.02
2019-05-20T10:58:50.999Z,17.92
2019-05-20T11:01:20.677Z,17.45
2019-05-20T11:03:50.411Z,18.82
2019-05-20T11:06:20.123Z,17.57
2019-05-20T11:08:49.834Z,17.92
2019-05-20T11:11:19.541Z,19.42
2019-05-20T11:13:49.251Z,19.15
2019-05-20T11:16:18.936Z,20.70
2019-05-20T11:18:48.585Z,19.42
2019-05-20T11:21:18.293Z,20.35
2019-05-20T11:23:47.989Z,20.20
2019-05-20T11:26:17.701Z,20.05
2019-05-20T11:28:47.383Z,20.95
2019-05-20T11:31:17.228Z,19.77
2019-05-20T11:33:46.932Z,23.10
2019-05-20T11:36:16.650Z,21.12
2019-05-20T11:38:46.352Z,22.85
2019-05-20T11:41:16.071Z,23.52
2019-05-20T11:43:45.774Z,25.08
2019-05-20T11:46:15.459Z,26.57
2019-05-20T11:48:45.099Z,26.90
2019-05-20T11:51:14.800Z,29.65
2019-05-20T11:53:44.408Z,27.77
2019-05-20T11:56:15.075Z,30.82
2019-05-20T11:58:44.856Z,29.25
2019-05-20T12:01:14.546Z,30.82
2019-05-20T12:03:45.963Z,30.37
2019-05-20T12:06:15.858Z,33.67
2019-05-20T12:08:45.434Z,34.90
2019-05-20T12:11:15.146Z,34.65
2019-05-20T12:13:45.818Z,37.67
2019-05-20T12:16:15.589Z,36.25
2019-05-20T12:18:45.363Z,37.33
2019-05-20T12:21:15.085Z,38.28
2019-05-20T12:23:44.797Z,39.25
2019-05-20T12:26:15.544Z,38.55
2019-05-20T12:28:45.264Z,36.20
2019-05-20T12:31:14.974Z,37.85
2019-05-20T12:33:46.480Z,37.35
2019-05-20T12:36:17.807Z,36.83
2019-05-20T12:38:47.485Z,34.83
2019-05-20T12:41:17.116Z,37.83
2019-05-20T12:43:46.930Z,37.75
2019-05-20T12:46:16.597Z,43.00
2019-05-20T12:48:46.345Z,44.70
2019-05-20T12:51:16.036Z,42.62
2019-05-20T12:53:45.746Z,41.25
2019-05-20T12:56:19.250Z,37.13
2019-05-20T12:58:46.805Z,42.00
2019-05-20T13:01:16.516Z,39.35
2019-05-20T13:03:46.214Z,32.35
2019-05-20T13:06:15.934Z,30.97
2019-05-20T13:08:45.625Z,31.90
2019-05-20T13:11:16.341Z,39.25
2019-05-20T13:13:46.087Z,41.20
2019-05-20T13:16:15.902Z,42.30
2019-05-20T13:18:55.572Z,39.98
2019-05-20T13:21:18.291Z,43.17
2019-05-20T13:23:49.012Z,23.05
2019-05-20T13:26:19.120Z,14.78
2019-05-20T13:28:48.753Z,18.73
2019-05-20T13:31:18.461Z,11.18
2019-05-20T13:33:48.179Z,12.05
2019-05-20T13:36:17.885Z,13.28
2019-05-20T13:38:47.592Z,14.53
2019-05-20T13:41:17.606Z,16.45
2019-05-20T13:43:47.402Z,15.23
2019-05-20T13:46:18.918Z,15.78
2019-05-20T13:48:48.378Z,19.02
2019-05-20T13:51:18.088Z,16.50
2019-05-20T13:53:49.652Z,14.58
2019-05-20T13:56:19.147Z,13.85
2019-05-20T13:58:48.754Z,12.88
2019-05-20T14:01:18.490Z,12.78
2019-05-20T14:03:49.206Z,14.78
2019-05-20T14:06:18.888Z,13.65
2019-05-20T14:08:48.619Z,12.75
2019-05-20T14:11:32.393Z,12.47
2019-05-20T14:13:49.657Z,12.67
2019-05-20T14:16:19.267Z,10.75
2019-05-20T14:18:50.022Z,13.93
2019-05-20T14:21:19.734Z,13.35
2019-05-20T14:23:49.348Z,14.03
2019-05-20T14:26:19.049Z,13.25
2019-05-20T14:28:48.756Z,13.65
2019-05-20T14:31:18.469Z,12.82
2019-05-20T14:33:48.188Z,12.68
2019-05-20T14:36:37.875Z,12.35
2019-05-20T14:38:49.236Z,12.17
2019-05-20T14:41:21.716Z,11.55
2019-05-20T14:43:50.197Z,10.43
2019-05-20T14:46:19.901Z,11.48
2019-05-20T14:48:49.498Z,10.05
2019-05-20T14:51:19.221Z,10.68
2019-05-20T14:53:50.191Z,11.40
2019-05-20T14:56:19.973Z,11.20
2019-05-20T14:58:49.682Z,11.12
2019-05-20T15:01:19.391Z,11.10
2019-05-20T15:03:49.105Z,10.00
2019-05-20T15:06:18.814Z,9.48
2019-05-20T15:08:48.523Z,9.38
2019-05-20T15:11:18.210Z,10.90
2019-05-20T15:13:47.942Z,11.08
2019-05-20T15:16:17.654Z,10.55
2019-05-20T15:18:47.363Z,10.72
2019-05-20T15:21:17.073Z,11.43
2019-05-20T15:23:46.786Z,10.60
2019-05-20T15:26:17.418Z,10.72
2019-05-20T15:28:48.179Z,10.18
2019-05-20T15:31:17.858Z,11.35
2019-05-20T15:33:47.548Z,11.68
2019-05-20T15:36:17.337Z,13.70
2019-05-20T15:38:46.964Z,15.58
2019-05-20T15:41:16.699Z,16.27
2019-05-20T15:43:46.291Z,18.37
2019-05-20T15:46:16.019Z,20.88
2019-05-20T15:48:45.727Z,21.20
2019-05-20T15:51:15.438Z,21.95
2019-05-20T15:53:45.149Z,18.42
2019-05-20T15:56:14.857Z,17.77
2019-05-20T15:58:44.568Z,14.75
2019-05-20T16:01:15.242Z,19.12
2019-05-20T16:03:44.915Z,16.70
2019-05-20T16:06:14.619Z,20.23
2019-05-20T16:08:44.328Z,18.75
2019-05-20T16:11:14.046Z,18.15
2019-05-20T16:13:43.663Z,17.30
2019-05-20T16:16:14.358Z,16.80
2019-05-20T16:19:06.503Z,18.52
2019-05-20T16:21:36.224Z,19.27
2019-05-20T16:24:05.936Z,18.40
2019-05-20T16:26:37.494Z,18.23
2019-05-20T16:29:07.357Z,18.37
2019-05-20T16:31:37.115Z,15.88
2019-05-20T16:34:08.728Z,19.02
2019-05-20T16:36:38.076Z,21.03
2019-05-20T16:39:07.757Z,21.90
2019-05-20T16:41:37.480Z,21.42
2019-05-20T16:44:08.226Z,23.90
2019-05-20T16:46:39.806Z,24.40
2019-05-20T16:49:09.181Z,21.42
2019-05-20T16:51:39.199Z,23.80
2019-05-20T16:54:08.812Z,26.97
2019-05-20T16:56:38.519Z,28.73
2019-05-20T16:59:08.230Z,24.23
2019-05-20T17:01:45.866Z,25.50
2019-05-20T17:04:09.185Z,23.93
2019-05-20T17:06:38.894Z,22.65
2019-05-20T17:09:08.608Z,23.00
2019-05-20T17:11:38.313Z,22.95
2019-05-20T17:14:10.558Z,22.42
2019-05-20T17:16:39.372Z,24.30
2019-05-20T17:19:09.086Z,23.55
2019-05-20T17:21:38.768Z,22.42
2019-05-20T17:24:08.425Z,25.27
2019-05-20T17:26:38.089Z,23.00
2019-05-20T17:29:07.822Z,26.02
2019-05-20T17:31:38.769Z,26.00
2019-05-20T17:34:08.350Z,24.30
2019-05-20T17:36:39.833Z,26.93
2019-05-20T17:39:09.528Z,25.40
2019-05-20T17:41:39.255Z,29.92
2019-05-20T17:44:08.891Z,29.37
2019-05-20T17:46:38.534Z,33.38
2019-05-20T17:49:09.290Z,33.42
2019-05-20T17:51:38.897Z,33.33
2019-05-20T17:54:08.610Z,32.23
2019-05-20T17:56:38.295Z,32.98
2019-05-20T17:59:07.899Z,34.75
2019-05-20T18:01:37.635Z,36.63
2019-05-20T18:04:07.352Z,36.17
2019-05-20T18:06:37.058Z,38.63
2019-05-20T18:09:07.763Z,38.70
2019-05-20T18:11:37.547Z,41.13
2019-05-20T18:14:08.443Z,40.15
2019-05-20T18:16:38.067Z,40.63
2019-05-20T18:19:07.762Z,37.40
2019-05-20T18:21:37.443Z,42.50
2019-05-20T18:24:07.188Z,39.95
2019-05-20T18:26:36.886Z,38.63
2019-05-20T18:29:06.600Z,39.80
2019-05-20T18:31:38.029Z,43.13
2019-05-20T18:34:08.725Z,44.13
2019-05-20T18:36:38.385Z,43.52
2019-05-20T18:39:08.077Z,43.00
2019-05-20T18:41:37.809Z,36.98
2019-05-20T18:44:07.499Z,40.60
2019-05-20T18:46:37.141Z,38.13
2019-05-20T18:49:06.818Z,36.42
2019-05-20T18:51:37.475Z,45.60
2019-05-20T18:54:08.138Z,41.53
2019-05-20T18:56:37.815Z,37.03
2019-05-20T18:59:07.499Z,35.08
2019-05-20T19:01:47.570Z,34.10
2019-05-20T19:04:08.596Z,35.90
2019-05-20T19:06:50.771Z,33.78
2019-05-20T19:09:20.492Z,30.97
2019-05-20T19:11:50.204Z,32.35
2019-05-20T19:14:20.874Z,31.87
2019-05-20T19:16:50.546Z,33.65
2019-05-20T19:19:20.255Z,27.65
2019-05-20T19:21:49.971Z,27.35
2019-05-20T19:24:19.675Z,25.55
2019-05-20T19:26:50.382Z,25.10
2019-05-20T19:29:19.991Z,24.72
2019-05-20T19:32:00.863Z,22.45
2019-05-20T19:34:20.949Z,21.93
2019-05-20T19:36:50.684Z,21.37
2019-05-20T19:39:20.495Z,20.82
2019-05-20T19:41:50.210Z,17.67
2019-05-20T19:44:19.919Z,16.30
2019-05-20T19:46:49.629Z,17.57
2019-05-20T19:49:21.033Z,18.70
2019-05-20T19:51:51.782Z,16.53
2019-05-20T19:54:21.520Z,17.27
2019-05-20T19:56:51.231Z,16.45
2019-05-20T19:59:20.848Z,16.12
2019-05-20T20:01:50.459Z,15.53
2019-05-20T20:04:20.158Z,15.93
2019-05-20T20:06:49.869Z,13.50
2019-05-20T20:09:19.560Z,11.95
2019-05-20T20:11:49.184Z,12.00
2019-05-20T20:14:18.894Z,11.83
2019-05-20T20:16:48.475Z,11.40
2019-05-20T20:19:18.213Z,12.00
2019-05-20T20:21:47.820Z,13.18
2019-05-20T20:24:17.508Z,13.22
2019-05-20T20:26:47.240Z,12.85
2019-05-20T20:29:17.041Z,12.98
2019-05-20T20:31:47.803Z,13.03
2019-05-20T20:34:17.483Z,12.65
2019-05-20T20:36:47.207Z,14.50
2019-05-20T20:39:16.916Z,14.47
2019-05-20T20:41:46.599Z,10.80
2019-05-20T20:44:16.337Z,8.83
2019-05-20T20:46:46.047Z,10.95
2019-05-20T20:49:17.447Z,10.25
2019-05-20T20:51:47.183Z,9.50
2019-05-20T20:54:16.918Z,9.18
2019-05-20T20:56:48.355Z,8.65
2019-05-20T20:59:17.979Z,9.37
2019-05-20T21:01:47.687Z,7.15
2019-05-20T21:04:17.397Z,7.08
2019-05-20T21:06:47.109Z,6.75
2019-05-20T21:09:18.060Z,7.05
2019-05-20T21:11:47.757Z,6.35
2019-05-20T21:14:19.198Z,6.30
2019-05-20T21:16:48.919Z,7.70
2019-05-20T21:19:18.604Z,8.23
2019-05-20T21:21:48.337Z,8.13
2019-05-20T21:24:17.951Z,8.33
2019-05-20T21:26:47.628Z,7.78
2019-05-20T21:29:19.094Z,7.90
2019-05-20T21:31:48.714Z,10.73
2019-05-20T21:34:18.399Z,11.18
2019-05-20T21:36:48.415Z,11.75
2019-05-20T21:39:20.150Z,10.85
2019-05-20T21:41:49.806Z,9.53
2019-05-20T21:44:19.530Z,12.07
2019-05-20T21:46:49.125Z,11.22
2019-05-20T21:49:18.836Z,11.28
2019-05-20T21:51:50.474Z,12.28
2019-05-20T21:54:19.893Z,15.37
2019-05-20T21:56:50.201Z,14.83
2019-05-20T21:59:21.157Z,12.82
2019-05-20T22:01:50.866Z,13.70
2019-05-20T22:04:20.560Z,12.73
2019-05-20T22:06:50.263Z,14.93
2019-05-20T22:09:20.971Z,12.58
2019-05-20T22:11:50.731Z,12.20
2019-05-20T22:14:21.466Z,12.65
2019-05-20T22:16:51.156Z,12.50
2019-05-20T22:19:20.786Z,11.12
2019-05-20T22:21:53.875Z,13.22
2019-05-20T22:24:23.481Z,17.57
2019-05-20T22:26:53.103Z,11.63
2019-05-20T22:29:22.802Z,11.57
2019-05-20T22:31:52.508Z,10.65
2019-05-20T22:34:22.116Z,10.45
2019-05-20T22:36:51.825Z,11.18
2019-05-20T22:39:22.022Z,11.80
2019-05-20T22:41:51.760Z,11.80
2019-05-20T22:44:21.445Z,10.18
2019-05-20T22:46:51.087Z,11.85
2019-05-20T22:49:20.786Z,8.48
2019-05-20T22:51:52.214Z,11.05
2019-05-20T22:54:21.845Z,7.23
2019-05-20T22:56:51.556Z,7.10
2019-05-20T22:59:21.267Z,3.77
2019-05-20T23:01:50.947Z,3.77
2019-05-20T23:04:21.663Z,5.17
2019-05-20T23:06:51.459Z,4.42
2019-05-20T23:09:21.096Z,4.42
2019-05-20T23:11:50.944Z,5.83
2019-05-20T23:14:20.653Z,6.60
2019-05-20T23:16:50.365Z,7.47
2019-05-20T23:19:20.074Z,8.38
2019-05-20T23:21:49.759Z,9.38
2019-05-20T23:24:19.490Z,13.08
2019-05-20T23:26:49.106Z,9.33
2019-05-20T23:29:19.767Z,8.83
2019-05-20T23:31:50.465Z,13.30
2019-05-20T23:34:21.883Z,13.62
2019-05-20T23:36:51.524Z,13.60
2019-05-20T23:39:21.156Z,14.15
2019-05-20T23:41:50.842Z,16.87
2019-05-20T23:44:20.527Z,19.35
2019-05-20T23:46:50.237Z,16.62
2019-05-20T23:49:19.947Z,16.97
2019-05-20T23:51:49.659Z,16.52
2019-05-20T23:54:19.393Z,15.08
2019-05-20T23:56:49.104Z,12.37
2019-05-20T23:59:18.695Z,12.03
